8A3

Livingston Municipal Airport

Livingston, Tennessee, USA
METAR K8A3 260315Z AUTO 00000KT 10SM CLR 13/09 A2993 RMK A01
Observed Flight Rules
Apr-26 @ 03:15 UTC (29 minutes ago) Visual Flight Rules
Visibility Clouds
10 miles
  • Clear skies
Temperatures Readings
Current 13°C / 55°F
Dewpoint 9°C / 48°F
Humidity 77%
Altimeter 29.93" Hg
Pressure 1014 hPa
Elevation 419
METAR K8A3 260315Z AUTO 00000KT 10SM CLR 13/09 A2993 RMK A01
Observed Flight Rules
Apr-26 @ 03:15 UTC
(29 minutes ago)
VFR
Clouds
  • Clear skies
Temperature Dewpoint
13°C / 55°F 9°C / 48°F
Humidity Altimeter Pressure
77% 29.93" Hg 1014 hPa